Flight Track Log - Related Links

Times and Time Zones

All times are in EDT time to prevent confusion due to time zone crossing. See the UAL252 flight status page for this flight to view local times or setup timezone preferences in your user account.

Time Position Orientation Groundspeed Altitude Reporting Facility
EDT Latitude Longitude Course Direction KTS MPH feet Rate Location/Type
Tue 08:25:59 PM 29.9906 -95.3594 349° North 163 188 800  Level Houston Center
Tue 08:27:07 PM 30.0411 -95.3703 349° North 181 208 2,600 2,019 Climbing Houston Center
Tue 08:27:43 PM 30.0867 -95.3767 353° North 241 277 4,300 3,231 Climbing Houston Center
Tue 08:28:38 PM 30.1567 -95.3853 354° North 290 334 7,500 3,103 Climbing Houston Center
Tue 08:29:10 PM 30.1828 -95.4017 332° Northwest 274 315 8,800 2,489 Climbing Houston Center
Tue 08:30:12 PM 30.2506 -95.4503 328° Northwest 282 325 11,400 2,195 Climbing Houston Center
Tue 08:31:13 PM 30.3322 -95.5086 328° Northwest 333 383 13,300 2,293 Climbing Houston Center
Tue 08:32:15 PM 30.4361 -95.5811 329° Northwest 359 413 16,100 2,049 Climbing Houston Center
Tue 08:33:16 PM 30.5258 -95.6453 328° Northwest 376 433 17,500 1,805 Climbing Houston Center
Tue 08:34:18 PM 30.6219 -95.6981 335° Northwest 383 441 19,800 1,854 Climbing Houston Center
Tue 08:35:19 PM 30.7147 -95.7483 335° Northwest 394 453 21,300 1,659 Climbing Houston Center
Tue 08:36:21 PM 30.8400 -95.8150 335° Northwest 410 472 23,200 1,756 Climbing Houston Center
Tue 08:37:22 PM 30.9494 -95.8731 336° Northwest 426 490 24,900 1,561 Climbing Houston Center
Tue 08:38:24 PM 31.0594 -95.9317 335° Northwest 432 497 26,400 1,403 Climbing Houston Center
Tue 08:39:26 PM 31.1722 -95.9867 337° Northwest 437 503 27,800 1,171 Climbing Houston Center
Tue 08:40:27 PM 31.3008 -96.0019 354° North 467 537 28,800 927 Climbing Houston Center
Tue 08:41:29 PM 31.4261 -95.9464 21° North 481 554 29,700 1,073 Climbing Houston Center
Tue 08:42:30 PM 31.5514 -95.8864 22° Northeast 485 558 31,000 1,268 Climbing Houston Center
Tue 08:43:32 PM 31.6794 -95.8261 22° Northeast 490 564 32,300 1,171 Climbing Houston Center
Tue 08:44:33 PM 31.8069 -95.7669 22° Northeast 490 564 33,400 1,317 Climbing Houston Center
Tue 08:45:35 PM 31.9614 -95.6969 21° North 492 566 35,000 780 Climbing Houston Center
Tue 08:46:36 PM 32.0881 -95.6389 21° North 488 562 35,000  Level Houston Center
Tue 08:47:38 PM 32.2158 -95.5808 21° North 488 562 35,000  Level Houston Center
Tue 08:48:40 PM 32.3358 -95.5053 28° Northeast 494 568 35,000  Level Houston Center
Tue 08:49:49 PM 32.4158 -95.3611 57° Northeast 463 533 35,000  Level Fort Worth Center
Tue 08:50:49 PM 32.4906 -95.2139 59° Northeast 475 547 35,000  Level Fort Worth Center
Tue 08:51:49 PM 32.5508 -95.0769 62° Northeast 485 558 35,000  Level Fort Worth Center
Tue 08:52:49 PM 32.6192 -94.9347 60° Northeast 490 564 35,000  Level Fort Worth Center
Tue 08:53:49 PM 32.6869 -94.7897 61° Northeast 490 564 35,000  Level Fort Worth Center
Tue 08:54:49 PM 32.7572 -94.6492 59° Northeast 495 570 35,000  Level Fort Worth Center
Tue 08:55:49 PM 32.8247 -94.5039 61° Northeast 495 570 35,000  Level Fort Worth Center
Tue 08:56:49 PM 32.8944 -94.3581 60° Northeast 495 570 35,000  Level Fort Worth Center
Tue 08:57:49 PM 32.9597 -94.2147 61° Northeast 490 564 35,000  Level Fort Worth Center
Tue 08:58:49 PM 33.0269 -94.0686 61° Northeast 490 564 35,000  Level Fort Worth Center
Tue 08:59:49 PM 33.0961 -93.9222 61° Northeast 495 570 35,000  Level Fort Worth Center
Tue 09:00:49 PM 33.1725 -93.7553 61° Northeast 505 581 35,000  Level Fort Worth Center
Tue 09:01:49 PM 33.2411 -93.6061 61° Northeast 510 587 35,000  Level Fort Worth Center
Tue 09:02:49 PM 33.3119 -93.4589 60° Northeast 510 587 35,000  Level Fort Worth Center
Tue 09:03:49 PM 33.3822 -93.3114 60° Northeast 510 587 35,000  Level Fort Worth Center
Tue 09:05:43 PM 33.5075 -93.0378 61° Northeast 514 592 35,000 34 Level Memphis Center
Tue 09:06:43 PM 33.5731 -92.8903 62° Northeast 509 586 35,100  Climbing Memphis Center
Tue 09:07:43 PM 33.6428 -92.7403 61° Northeast 509 586 35,000 -50 Descending Memphis Center
Tue 09:08:43 PM 33.7103 -92.5922 61° Northeast 509 586 35,000  Level Memphis Center
Tue 09:09:43 PM 33.7778 -92.4414 62° Northeast 509 586 35,000  Level Memphis Center
Tue 09:10:43 PM 33.8469 -92.2906 61° Northeast 509 586 35,000  Level Memphis Center
Tue 09:11:43 PM 33.9139 -92.1419 61° Northeast 509 586 35,000 50 Level Memphis Center
Tue 09:12:43 PM 33.9783 -91.9903 63° Northeast 509 586 35,100  Climbing Memphis Center
Tue 09:13:43 PM 34.0472 -91.8386 61° Northeast 509 586 35,000 -50 Descending Memphis Center
Tue 09:14:43 PM 34.1072 -91.6817 65° Northeast 509 586 35,000  Level Memphis Center
Tue 09:15:43 PM 34.1756 -91.5322 61° Northeast 509 586 35,000  Level Memphis Center
Tue 09:16:43 PM 34.2417 -91.3747 63° Northeast 515 593 35,000  Level Memphis Center
Tue 09:17:43 PM 34.3075 -91.2222 62° Northeast 515 593 35,000 50 Level Memphis Center
Tue 09:18:43 PM 34.3817 -91.0492 63° Northeast 509 586 35,100  Climbing Memphis Center
Tue 09:19:43 PM 34.4492 -90.8961 62° Northeast 509 586 35,000 -50 Descending Memphis Center
Tue 09:20:43 PM 34.5164 -90.7403 62° Northeast 509 586 35,000  Level Memphis Center
Tue 09:21:43 PM 34.5814 -90.5867 63° Northeast 509 586 35,000  Level Memphis Center
Tue 09:22:43 PM 34.6483 -90.4278 63° Northeast 509 586 35,000  Level Memphis Center
Tue 09:23:43 PM 34.7153 -90.2736 62° Northeast 509 586 35,000  Level Memphis Center
Tue 09:24:43 PM 34.7797 -90.1169 63° Northeast 509 586 35,000  Level Memphis Center
Tue 09:25:43 PM 34.8461 -89.9650 62° Northeast 509 586 35,000  Level Memphis Center
Tue 09:26:43 PM 34.9058 -89.7950 67° East 509 586 35,000  Level Memphis Center
Tue 09:27:43 PM 34.9739 -89.6500 60° Northeast 533 613 35,000  Level Memphis Center
Tue 09:28:43 PM 35.0417 -89.4819 64° Northeast 523 602 35,000  Level Memphis Center
Tue 09:29:43 PM 35.1011 -89.3292 65° Northeast 503 579 35,000  Level Memphis Center
Tue 09:30:43 PM 35.1644 -89.1758 63° Northeast 503 579 35,000  Level Memphis Center
Tue 09:31:43 PM 35.2275 -89.0225 63° Northeast 503 579 35,000  Level Memphis Center
Tue 09:32:43 PM 35.2903 -88.8614 64° Northeast 508 585 35,000  Level Memphis Center
Tue 09:33:43 PM 35.3508 -88.7075 64° Northeast 508 585 35,000  Level Memphis Center
Tue 09:34:43 PM 35.4156 -88.5508 63° Northeast 513 590 35,000  Level Memphis Center
Tue 09:35:43 PM 35.4778 -88.3914 64° Northeast 513 590 35,000  Level Memphis Center
Tue 09:36:43 PM 35.5397 -88.2342 64° Northeast 513 590 35,000  Level Memphis Center
Tue 09:37:43 PM 35.5956 -88.0797 66° East 502 578 35,000  Level Memphis Center
Tue 09:38:43 PM 35.6592 -87.9219 64° Northeast 507 583 35,000  Level Memphis Center
Tue 09:39:43 PM 35.7225 -87.7589 64° Northeast 507 583 35,000  Level Memphis Center
Tue 09:40:43 PM 35.7839 -87.6011 64° Northeast 514 592 35,000  Level Memphis Center
Tue 09:41:43 PM 35.8469 -87.4375 65° Northeast 509 586 35,000  Level Memphis Center
Tue 09:42:43 PM 35.9039 -87.2972 63° Northeast 509 586 35,000  Level Memphis Center
Tue 09:43:43 PM 35.9644 -87.1333 65° Northeast 509 586 35,000  Level Memphis Center
Tue 09:44:43 PM 36.0267 -86.9692 65° Northeast 509 586 35,000  Level Memphis Center
Tue 09:45:43 PM 36.0889 -86.8022 65° Northeast 514 592 35,000  Level Memphis Center
Tue 09:46:43 PM 36.1483 -86.6325 67° East 525 604 35,000  Level Memphis Center
Tue 09:47:43 PM 36.2017 -86.4631 69° East 530 610 35,000  Level Memphis Center
Tue 09:49:34 PM 36.2961 -86.1514 69° East 537 618 35,000  Level Indianapolis Center
Tue 09:50:35 PM 36.3467 -85.9797 70° East 531 611 35,000  Level Indianapolis Center
Tue 09:51:36 PM 36.4017 -85.8019 69° East 530 610 35,000  Level Indianapolis Center
Tue 09:52:38 PM 36.4506 -85.6317 70° East 524 603 35,000  Level Indianapolis Center
Tue 09:53:39 PM 36.5061 -85.4586 68° East 531 611 35,000  Level Indianapolis Center
Tue 09:54:40 PM 36.5717 -85.2528 68° East 532 612 35,000  Level Indianapolis Center
Tue 09:55:42 PM 36.6253 -85.0803 69° East 531 611 35,000  Level Indianapolis Center
Tue 09:56:43 PM 36.6797 -84.9083 68° East 532 612 35,000  Level Indianapolis Center
Tue 09:57:44 PM 36.7317 -84.7358 69° East 531 611 35,000  Level Indianapolis Center
Tue 09:58:46 PM 36.7844 -84.5631 69° East 532 612 35,000  Level Indianapolis Center
Tue 09:59:47 PM 36.8367 -84.3958 69° East 533 613 35,000  Level Indianapolis Center
Tue 10:00:48 PM 36.8897 -84.2242 69° East 530 610 35,000  Level Indianapolis Center
Tue 10:01:49 PM 36.9417 -84.0514 69° East 531 611 35,000  Level Indianapolis Center
Tue 10:02:51 PM 36.9922 -83.8800 70° East 526 605 35,000  Level Indianapolis Center
Tue 10:03:52 PM 37.0567 -83.6764 68° East 537 618 35,000  Level Indianapolis Center
Tue 10:04:53 PM 37.1064 -83.5050 70° East 525 604 35,000  Level Indianapolis Center
Tue 10:05:54 PM 37.1575 -83.3328 70° East 527 606 35,000  Level Indianapolis Center
Tue 10:06:56 PM 37.2083 -83.1597 70° East 526 605 35,000  Level Indianapolis Center
Tue 10:07:57 PM 37.2603 -82.9853 69° East 530 610 35,000  Level Indianapolis Center
Tue 10:08:58 PM 37.3103 -82.8103 70° East 528 608 35,000  Level Indianapolis Center
Tue 10:09:59 PM 37.3597 -82.6350 70° East 529 609 35,000  Level Indianapolis Center
Tue 10:11:01 PM 37.4100 -82.4614 70° East 526 605 35,000  Level Indianapolis Center
Tue 10:12:02 PM 37.4594 -82.2881 70° East 525 604 35,000  Level Indianapolis Center
Tue 10:13:03 PM 37.5089 -82.1119 70° East 530 610 35,000  Level Indianapolis Center
Tue 10:14:04 PM 37.5586 -81.9358 70° East 532 612 35,000  Level Indianapolis Center
Tue 10:15:06 PM 37.6069 -81.7603 71° East 530 610 35,000  Level Indianapolis Center
Tue 10:16:07 PM 37.6558 -81.5836 71° East 531 611 35,000  Level Indianapolis Center
Tue 10:17:08 PM 37.7072 -81.3967 71° East 528 608 35,000  Level Indianapolis Center
Tue 10:18:09 PM 37.7528 -81.2247 71° East 529 609 35,000  Level Indianapolis Center
Tue 10:19:11 PM 37.8044 -81.0553 69° East 530 610 35,000  Level Indianapolis Center
Tue 10:20:12 PM 37.8686 -80.8761 66° East 533 613 35,000  Level Indianapolis Center
Tue 10:21:13 PM 37.9278 -80.7072 66° East 528 608 35,000  Level Indianapolis Center
Tue 10:22:14 PM 37.9881 -80.5369 66° East 530 610 35,000  Level Indianapolis Center
Tue 10:23:15 PM 38.0506 -80.3581 66° East 527 606 35,000  Level Indianapolis Center
Tue 10:24:17 PM 38.1189 -80.1656 66° East 527 606 35,000 -488 Level Indianapolis Center
Tue 10:25:18 PM 38.1797 -79.9925 66° East 530 610 34,000 -1,131 Descending Indianapolis Center
Tue 10:26:19 PM 38.2406 -79.8242 65° Northeast 533 613 32,700 -1,377 Descending Indianapolis Center
Tue 10:27:20 PM 38.2983 -79.6547 66° East 534 615 31,200 -1,426 Descending Indianapolis Center
Tue 10:28:21 PM 38.3553 -79.4875 66° East 526 605 29,800 -1,588 Descending Indianapolis Center
Tue 10:29:36 PM 38.4342 -79.2603 66° East 526 605 27,600 -1,500 Descending Washington Center
Tue 10:30:37 PM 38.4622 -79.0892 78° East 510 587 26,400 -1,574 Descending Washington Center
Tue 10:31:38 PM 38.4919 -78.9261 77° East 496 571 24,400 -2,136 Descending Washington Center
Tue 10:32:35 PM 38.5150 -78.7678 79° East 472 543 22,200 -1,729 Descending Washington Center
Tue 10:33:36 PM 38.5397 -78.6203 78° East 449 517 21,000 -1,279 Descending Washington Center
Tue 10:34:37 PM 38.5619 -78.4697 79° East 429 494 19,600 -1,339 Descending Washington Center
Tue 10:35:37 PM 38.5842 -78.3272 79° East 418 481 18,300 -1,373 Descending Washington Center
Tue 10:36:35 PM 38.6164 -78.1956 73° East 405 466 16,900 -1,361 Descending Washington Center
Tue 10:37:36 PM 38.6564 -78.0719 67° East 382 440 15,600 -1,250 Descending Washington Center
Tue 10:38:35 PM 38.6922 -77.9561 68° East 367 422 14,400 -1,210 Descending Washington Center
Tue 10:39:35 PM 38.7275 -77.8483 67° East 341 392 13,200 -1,190 Descending Washington Center
Tue 10:40:36 PM 38.7769 -77.7644 53° Northeast 308 354 12,000 -1,180 Descending Washington Center
Tue 10:41:37 PM 38.8286 -77.6808 52° Northeast 298 343 10,800 -1,210 Descending Washington Center
Tue 10:42:35 PM 38.8636 -77.5858 65° Northeast 288 331 9,600 -1,159 Descending Washington Center
Tue 10:43:05 PM 38.8833 -77.5333 64° Northeast 283 326 9,100 -1,133 Descending Potomac TRACON
Tue 10:44:05 PM 38.9000 -77.4500 76° East 285 328 7,900 -1,200 Descending Potomac TRACON
Tue 10:45:05 PM 38.8667 -77.3500 113° Southeast 285 328 6,700 -950 Descending Potomac TRACON
Tue 10:46:05 PM 38.8333 -77.2667 117° Southeast 280 322 6,000 -1,000 Descending Potomac TRACON
Tue 10:47:05 PM 38.7833 -77.1833 128° Southeast 274 315 4,700 -1,043 Descending Potomac TRACON
Tue 10:48:00 PM 38.7500 -77.1167 123° Southeast 250 288 4,000 -417 Descending Potomac TRACON
Tue 10:49:00 PM 38.7000 -77.0833 153° Southeast 210 242 3,900 -650 Descending Potomac TRACON
Tue 10:50:00 PM 38.7167 -77.0500 57° Northeast 168 193 2,700 -905 Descending Potomac TRACON
Tue 10:51:06 PM 38.7500 -77.0333 21° North 132 152 2,000 -636 Descending Potomac TRACON

Login

Don't have an account? Register now (free) for customized features, flight alerts, and more!